createdAt,value
2023-04-24T00:01:13.341Z,3.13
2023-04-24T00:05:15.340Z,2.87
2023-04-24T00:09:16.433Z,3.53
2023-04-24T00:13:17.476Z,3.90
2023-04-24T00:17:21.969Z,3.47
2023-04-24T00:21:24.925Z,4.30
2023-04-24T00:25:25.923Z,5.67
2023-04-24T00:29:27.043Z,8.83
2023-04-24T00:33:29.020Z,5.30
2023-04-24T00:37:29.872Z,4.50
2023-04-24T00:41:31.091Z,4.67
2023-04-24T00:45:32.347Z,4.30
2023-04-24T00:49:33.336Z,7.70
2023-04-24T00:53:34.401Z,4.00
2023-04-24T00:57:36.004Z,4.47
2023-04-24T01:01:37.379Z,4.03
2023-04-24T01:05:38.522Z,7.80
2023-04-24T01:09:42.226Z,5.87
2023-04-24T01:13:43.562Z,4.33
2023-04-24T01:17:45.531Z,4.70
2023-04-24T01:21:48.409Z,4.97
2023-04-24T01:25:50.633Z,5.17
2023-04-24T01:29:52.388Z,6.53
2023-04-24T01:33:55.061Z,6.47
2023-04-24T01:37:56.201Z,6.37
2023-04-24T01:41:57.480Z,7.07
2023-04-24T01:45:58.589Z,8.10
2023-04-24T01:49:59.896Z,7.77
2023-04-24T01:54:00.962Z,9.40
2023-04-24T01:58:02.633Z,11.73
2023-04-24T02:02:04.186Z,10.00
2023-04-24T02:06:05.624Z,10.63
2023-04-24T02:10:07.520Z,9.03
2023-04-24T02:14:08.857Z,10.33
2023-04-24T02:18:10.484Z,8.53
2023-04-24T02:22:11.633Z,9.17
2023-04-24T02:26:12.798Z,9.40
2023-04-24T02:30:14.403Z,8.60
2023-04-24T02:34:16.895Z,6.00
2023-04-24T02:38:18.006Z,3.40
2023-04-24T02:42:19.116Z,2.60
2023-04-24T02:46:20.374Z,2.47
2023-04-24T02:50:21.390Z,3.00
2023-04-24T02:54:22.522Z,2.93
2023-04-24T02:58:23.502Z,2.70
2023-04-24T03:02:24.990Z,2.53
2023-04-24T03:06:27.358Z,3.23
2023-04-24T03:10:28.335Z,3.03
2023-04-24T03:14:33.846Z,3.70
2023-04-24T03:18:35.059Z,3.33
2023-04-24T03:22:36.342Z,3.33
2023-04-24T03:26:37.719Z,4.40
2023-04-24T03:30:38.720Z,7.17
2023-04-24T03:34:39.844Z,3.47
2023-04-24T03:38:41.008Z,4.17
2023-04-24T03:42:42.170Z,4.30
2023-04-24T03:46:43.244Z,4.20
2023-04-24T03:50:45.018Z,4.20
2023-04-24T03:54:46.160Z,4.73
2023-04-24T03:58:47.379Z,4.37
2023-04-24T04:02:48.615Z,3.53
2023-04-24T04:06:49.865Z,5.03
2023-04-24T04:10:50.881Z,4.17
2023-04-24T04:14:51.881Z,3.70
2023-04-24T04:18:53.048Z,4.10
2023-04-24T04:22:54.210Z,4.20
2023-04-24T04:26:57.139Z,4.63
2023-04-24T04:30:58.476Z,4.77
2023-04-24T04:35:02.535Z,4.77
2023-04-24T04:39:04.267Z,4.77
2023-04-24T04:43:05.882Z,4.30
2023-04-24T04:47:09.224Z,4.90
2023-04-24T04:51:10.562Z,3.77
2023-04-24T04:55:13.662Z,4.53
2023-04-24T04:59:14.700Z,4.17
2023-04-24T05:07:18.778Z,4.37
2023-04-24T05:11:19.778Z,5.60
2023-04-24T05:15:20.863Z,4.20
2023-04-24T05:19:21.975Z,3.80
2023-04-24T05:23:22.962Z,4.80
2023-04-24T05:27:25.314Z,5.03
2023-04-24T05:31:26.512Z,4.23
2023-04-24T05:35:27.792Z,3.90
2023-04-24T05:39:28.758Z,4.27
2023-04-24T05:43:29.964Z,4.63
2023-04-24T05:47:31.132Z,4.73
2023-04-24T05:51:32.036Z,4.57
2023-04-24T05:55:33.132Z,5.90
2023-04-24T05:59:36.944Z,5.03
2023-04-24T06:03:39.858Z,5.00
2023-04-24T06:07:41.153Z,5.80
2023-04-24T06:11:42.904Z,5.33
2023-04-24T06:15:45.047Z,6.87
2023-04-24T06:19:46.225Z,6.10
2023-04-24T06:23:47.833Z,7.23
2023-04-24T06:27:48.767Z,7.10
2023-04-24T06:31:50.435Z,6.17
2023-04-24T06:35:51.413Z,7.20
2023-04-24T06:39:52.465Z,9.03
2023-04-24T06:43:53.613Z,8.70
2023-04-24T06:47:54.724Z,8.57
2023-04-24T06:51:56.077Z,8.23
2023-04-24T06:55:57.180Z,8.20
2023-04-24T06:59:58.249Z,8.67
2023-04-24T07:04:00.992Z,8.20
2023-04-24T07:08:03.479Z,6.97
2023-04-24T07:12:04.707Z,7.60
2023-04-24T07:16:06.320Z,6.97
2023-04-24T07:20:09.859Z,6.03
2023-04-24T07:24:12.088Z,6.97
2023-04-24T07:28:13.377Z,7.67
2023-04-24T07:32:14.988Z,5.90
2023-04-24T07:36:17.364Z,5.27
2023-04-24T07:40:19.265Z,4.90
2023-04-24T07:44:20.309Z,4.80
2023-04-24T07:48:22.423Z,5.73
2023-04-24T07:52:24.154Z,5.40
2023-04-24T07:56:27.965Z,4.23
2023-04-24T08:00:29.126Z,4.60
2023-04-24T08:04:30.359Z,4.83
2023-04-24T08:08:31.519Z,5.20
2023-04-24T08:12:32.493Z,4.80
2023-04-24T08:16:34.253Z,4.93
2023-04-24T08:20:35.616Z,4.90
2023-04-24T08:24:37.329Z,5.20
2023-04-24T08:28:38.833Z,5.90
2023-04-24T08:32:39.871Z,4.70
2023-04-24T08:36:46.983Z,4.73
2023-04-24T08:40:46.301Z,4.60
2023-04-24T08:44:50.127Z,4.10
2023-04-24T08:48:52.633Z,5.00
2023-04-24T08:52:53.964Z,4.50
2023-04-24T08:56:58.796Z,4.23
2023-04-24T09:01:01.005Z,4.40
2023-04-24T09:05:04.064Z,4.00
2023-04-24T09:09:05.821Z,3.93
2023-04-24T09:13:09.249Z,3.90
2023-04-24T09:17:10.368Z,3.83
2023-04-24T09:21:12.337Z,3.57
2023-04-24T09:25:13.830Z,3.60
2023-04-24T09:29:17.113Z,4.10
2023-04-24T09:33:18.495Z,3.17
2023-04-24T09:37:30.135Z,3.27
2023-04-24T09:41:32.962Z,3.03
2023-04-24T09:45:39.875Z,3.00
2023-04-24T09:49:43.077Z,2.40
2023-04-24T09:53:50.579Z,3.30
2023-04-24T09:57:57.491Z,3.80
2023-04-24T10:02:00.372Z,2.87
2023-04-24T10:06:04.186Z,2.50
2023-04-24T10:10:06.729Z,2.20
2023-04-24T10:14:11.383Z,2.10
2023-04-24T10:18:12.621Z,3.20
2023-04-24T10:22:16.298Z,2.67
2023-04-24T10:26:18.226Z,2.17
2023-04-24T10:30:20.314Z,2.57
2023-04-24T10:34:23.398Z,2.27
2023-04-24T10:38:28.394Z,1.70
2023-04-24T10:42:29.594Z,1.83
2023-04-24T10:46:30.928Z,1.67
2023-04-24T10:50:50.377Z,1.60
2023-04-24T10:54:51.520Z,1.20
2023-04-24T10:58:54.400Z,1.97
2023-04-24T11:02:55.781Z,2.40
2023-04-24T11:06:58.039Z,3.10
2023-04-24T11:11:01.935Z,4.63
2023-04-24T11:15:03.710Z,2.93
2023-04-24T11:19:18.130Z,3.40
2023-04-24T11:23:20.773Z,3.10
2023-04-24T11:27:23.126Z,3.37
2023-04-24T11:31:42.425Z,3.83
2023-04-24T11:35:43.681Z,4.73
2023-04-24T11:39:44.962Z,3.33
2023-04-24T11:43:46.645Z,3.50
2023-04-24T11:47:48.229Z,4.83
2023-04-24T11:51:53.535Z,4.80
2023-04-24T11:55:52.114Z,4.50
2023-04-24T11:59:53.352Z,4.67
2023-04-24T12:03:58.641Z,7.27
2023-04-24T12:08:00.146Z,5.17
2023-04-24T12:12:01.557Z,5.07
2023-04-24T12:16:04.934Z,5.73
2023-04-24T12:20:08.249Z,5.70
2023-04-24T12:24:09.397Z,4.90
2023-04-24T12:28:12.965Z,5.87
2023-04-24T12:32:17.631Z,5.10
2023-04-24T12:36:20.895Z,7.20
2023-04-24T12:40:24.635Z,7.73
2023-04-24T12:44:34.823Z,7.93
2023-04-24T12:48:36.045Z,9.67
2023-04-24T12:52:39.589Z,7.13
2023-04-24T12:56:40.683Z,4.93
2023-04-24T13:00:43.822Z,4.20
2023-04-24T13:04:47.074Z,4.73
2023-04-24T13:08:48.930Z,5.00
2023-04-24T13:12:50.193Z,4.43
2023-04-24T13:16:51.912Z,6.20
2023-04-24T13:20:53.182Z,5.40
2023-04-24T13:24:55.448Z,7.70
2023-04-24T13:28:56.618Z,7.33
2023-04-24T13:32:57.648Z,7.77
2023-04-24T13:36:59.092Z,10.67
2023-04-24T13:41:00.920Z,9.13
2023-04-24T13:45:06.015Z,10.23
2023-04-24T13:49:05.090Z,9.43
2023-04-24T13:53:06.427Z,8.00
2023-04-24T13:57:07.709Z,10.03
2023-04-24T14:01:08.935Z,9.30
2023-04-24T14:05:11.485Z,9.53
2023-04-24T14:09:13.184Z,9.43
2023-04-24T14:13:14.889Z,6.50
2023-04-24T14:17:15.842Z,6.93
2023-04-24T14:21:17.042Z,6.87
2023-04-24T14:25:18.067Z,7.43
2023-04-24T14:29:19.861Z,7.03
2023-04-24T14:33:21.414Z,7.53
2023-04-24T14:37:22.475Z,8.63
2023-04-24T14:41:23.566Z,8.67
2023-04-24T14:45:25.468Z,11.80
2023-04-24T14:49:26.609Z,9.83
2023-04-24T14:53:28.618Z,10.17
2023-04-24T14:57:29.908Z,9.93
2023-04-24T15:01:31.039Z,9.80
2023-04-24T15:05:32.399Z,8.73
2023-04-24T15:09:33.910Z,7.90
2023-04-24T15:13:35.097Z,8.40
2023-04-24T15:17:36.590Z,8.27
2023-04-24T15:21:38.181Z,10.37
2023-04-24T15:25:39.462Z,8.47
2023-04-24T15:29:40.714Z,10.07
2023-04-24T15:33:41.799Z,8.37
2023-04-24T15:37:42.907Z,9.50
2023-04-24T15:41:43.840Z,8.63
2023-04-24T15:45:45.007Z,11.03
2023-04-24T15:49:46.162Z,8.60
2023-04-24T15:53:47.712Z,7.83
2023-04-24T15:57:49.339Z,9.60
2023-04-24T16:01:50.417Z,7.23
2023-04-24T16:05:53.380Z,8.07
2023-04-24T16:09:54.346Z,7.43
2023-04-24T16:13:55.446Z,8.77
2023-04-24T16:17:56.976Z,12.47
2023-04-24T16:21:58.444Z,10.07
2023-04-24T16:25:59.427Z,13.17
2023-04-24T16:30:00.673Z,8.80
2023-04-24T16:34:03.544Z,12.97
2023-04-24T16:38:04.858Z,12.77
2023-04-24T16:42:06.256Z,11.27
2023-04-24T16:46:07.628Z,16.63
2023-04-24T16:50:09.738Z,10.60
2023-04-24T16:54:10.883Z,10.83
2023-04-24T16:58:12.329Z,14.60
2023-04-24T17:02:13.617Z,17.67
2023-04-24T17:06:14.781Z,11.13
2023-04-24T17:10:16.299Z,13.67
2023-04-24T17:14:17.257Z,10.93
2023-04-24T17:18:18.589Z,11.07
2023-04-24T17:22:19.827Z,11.77
2023-04-24T17:26:20.934Z,11.30
2023-04-24T17:34:38.127Z,15.37
2023-04-24T17:38:39.222Z,13.23
2023-04-24T17:42:41.812Z,14.37
2023-04-24T17:46:43.020Z,14.13
2023-04-24T17:50:45.361Z,13.03
2023-04-24T17:54:46.346Z,13.87
2023-04-24T17:58:49.694Z,14.27
2023-04-24T18:02:53.056Z,14.93
2023-04-24T18:06:54.200Z,14.27
2023-04-24T18:10:55.288Z,15.93
2023-04-24T18:15:06.617Z,16.93
2023-04-24T18:18:59.528Z,14.83
2023-04-24T18:23:02.238Z,14.93
2023-04-24T18:27:03.620Z,16.57
2023-04-24T18:31:06.798Z,15.47
2023-04-24T18:35:08.362Z,14.13
2023-04-24T18:39:09.556Z,15.93
2023-04-24T18:43:10.707Z,15.03
2023-04-24T18:47:11.909Z,17.00
2023-04-24T18:51:13.016Z,13.63
2023-04-24T18:55:14.209Z,14.30
2023-04-24T18:59:15.146Z,19.17
2023-04-24T19:03:16.296Z,19.23
2023-04-24T19:07:19.032Z,16.17
2023-04-24T19:11:20.597Z,17.43
2023-04-24T19:15:23.568Z,15.17
2023-04-24T19:19:25.482Z,13.80
2023-04-24T19:23:26.846Z,14.30
2023-04-24T19:27:27.846Z,16.50
2023-04-24T19:31:29.165Z,21.50
2023-04-24T19:35:30.451Z,15.70
2023-04-24T19:39:31.873Z,17.27
2023-04-24T19:43:32.960Z,17.53
2023-04-24T19:47:33.932Z,16.30
2023-04-24T19:51:35.482Z,17.40
2023-04-24T19:55:37.105Z,16.17
2023-04-24T19:59:38.222Z,16.40
2023-04-24T20:03:39.365Z,19.20
2023-04-24T20:07:40.697Z,16.07
2023-04-24T20:11:43.118Z,16.33
2023-04-24T20:15:44.411Z,15.20
2023-04-24T20:19:45.980Z,17.23
2023-04-24T20:23:47.121Z,16.37
2023-04-24T20:27:48.224Z,16.70
2023-04-24T20:31:50.285Z,15.87
2023-04-24T20:35:51.854Z,17.07
2023-04-24T20:39:53.029Z,16.03
2023-04-24T20:43:53.991Z,16.47
2023-04-24T20:47:55.149Z,15.50
2023-04-24T20:51:58.024Z,15.60
2023-04-24T20:55:58.985Z,15.03
2023-04-24T21:00:00.204Z,16.23
2023-04-24T21:04:01.403Z,16.87
2023-04-24T21:08:02.420Z,17.57
2023-04-24T21:12:03.987Z,15.77
2023-04-24T21:16:05.683Z,14.00
2023-04-24T21:20:08.261Z,17.23
2023-04-24T21:24:09.388Z,15.50
2023-04-24T21:28:10.600Z,15.40
2023-04-24T21:32:11.867Z,14.50
2023-04-24T21:36:12.852Z,14.67
2023-04-24T21:40:15.225Z,15.70
2023-04-24T21:44:16.174Z,15.70
2023-04-24T21:48:17.286Z,14.23
2023-04-24T21:52:18.248Z,13.57
2023-04-24T21:56:19.449Z,15.00
2023-04-24T22:00:20.953Z,13.40
2023-04-24T22:04:22.033Z,14.10
2023-04-24T22:08:24.641Z,15.33
2023-04-24T22:12:25.669Z,15.67
2023-04-24T22:16:29.021Z,14.83
2023-04-24T22:20:30.193Z,17.10
2023-04-24T22:24:31.292Z,15.90
2023-04-24T22:28:32.266Z,17.13
2023-04-24T22:32:33.985Z,17.80
2023-04-24T22:36:35.449Z,17.10
2023-04-24T22:40:36.394Z,23.37
2023-04-24T22:44:37.396Z,21.00
2023-04-24T22:48:39.267Z,19.70
2023-04-24T22:52:41.147Z,19.90
2023-04-24T22:56:42.412Z,20.63
2023-04-24T23:00:43.902Z,31.73
2023-04-24T23:04:45.097Z,20.37
2023-04-24T23:08:46.321Z,19.50
2023-04-24T23:12:47.643Z,19.70
2023-04-24T23:16:48.659Z,20.53
2023-04-24T23:20:49.958Z,20.13
2023-04-24T23:24:51.382Z,19.30
2023-04-24T23:28:52.806Z,23.40
2023-04-24T23:32:53.865Z,20.73
2023-04-24T23:36:55.263Z,22.23
2023-04-24T23:40:56.365Z,21.93
2023-04-24T23:44:57.340Z,22.40
2023-04-24T23:48:58.500Z,22.30
2023-04-24T23:52:59.965Z,23.53
2023-04-24T23:57:01.837Z,24.03
